sensor_id;sensor_type;location;lat;lon;timestamp;P1;durP1;ratioP1;P2;durP2;ratioP2
30681;SDS011;17439;48.092;11.842;2023-01-19T00:00:35;10.10;;;4.75;;
30681;SDS011;17439;48.092;11.842;2023-01-19T00:03:02;12.60;;;5.50;;
30681;SDS011;17439;48.092;11.842;2023-01-19T00:05:30;10.38;;;5.15;;
30681;SDS011;17439;48.092;11.842;2023-01-19T00:07:56;11.57;;;5.38;;
30681;SDS011;17439;48.092;11.842;2023-01-19T00:10:23;15.93;;;6.60;;
30681;SDS011;17439;48.092;11.842;2023-01-19T00:12:50;15.27;;;6.00;;
30681;SDS011;17439;48.092;11.842;2023-01-19T00:15:17;10.50;;;6.43;;
30681;SDS011;17439;48.092;11.842;2023-01-19T00:17:44;11.20;;;5.72;;
30681;SDS011;17439;48.092;11.842;2023-01-19T00:20:10;14.77;;;6.72;;
30681;SDS011;17439;48.092;11.842;2023-01-19T00:22:37;13.75;;;5.45;;
30681;SDS011;17439;48.092;11.842;2023-01-19T00:25:03;12.52;;;6.50;;
30681;SDS011;17439;48.092;11.842;2023-01-19T00:27:30;12.90;;;6.32;;
30681;SDS011;17439;48.092;11.842;2023-01-19T00:29:57;11.85;;;5.30;;
30681;SDS011;17439;48.092;11.842;2023-01-19T00:32:23;9.93;;;5.03;;
30681;SDS011;17439;48.092;11.842;2023-01-19T00:34:50;14.73;;;7.03;;
30681;SDS011;17439;48.092;11.842;2023-01-19T00:37:16;12.52;;;6.15;;
30681;SDS011;17439;48.092;11.842;2023-01-19T00:39:43;11.93;;;5.97;;
30681;SDS011;17439;48.092;11.842;2023-01-19T00:42:13;15.13;;;6.10;;
30681;SDS011;17439;48.092;11.842;2023-01-19T00:44:39;12.75;;;6.22;;
30681;SDS011;17439;48.092;11.842;2023-01-19T00:47:06;14.23;;;6.15;;
30681;SDS011;17439;48.092;11.842;2023-01-19T00:49:32;15.63;;;5.60;;
30681;SDS011;17439;48.092;11.842;2023-01-19T00:51:59;12.75;;;5.72;;
30681;SDS011;17439;48.092;11.842;2023-01-19T00:54:26;15.50;;;6.28;;
30681;SDS011;17439;48.092;11.842;2023-01-19T00:56:52;13.63;;;5.97;;
30681;SDS011;17439;48.092;11.842;2023-01-19T00:59:19;11.80;;;6.25;;
30681;SDS011;17439;48.092;11.842;2023-01-19T01:01:46;12.82;;;6.32;;
30681;SDS011;17439;48.092;11.842;2023-01-19T01:04:13;15.52;;;6.47;;
30681;SDS011;17439;48.092;11.842;2023-01-19T01:06:39;17.20;;;6.13;;
30681;SDS011;17439;48.092;11.842;2023-01-19T01:09:06;15.25;;;6.78;;
30681;SDS011;17439;48.092;11.842;2023-01-19T01:11:32;13.80;;;6.10;;
30681;SDS011;17439;48.092;11.842;2023-01-19T01:13:59;13.23;;;6.22;;
30681;SDS011;17439;48.092;11.842;2023-01-19T01:16:26;18.08;;;7.43;;
30681;SDS011;17439;48.092;11.842;2023-01-19T01:18:52;27.90;;;7.30;;
30681;SDS011;17439;48.092;11.842;2023-01-19T01:21:19;12.40;;;5.93;;
30681;SDS011;17439;48.092;11.842;2023-01-19T01:23:45;15.05;;;7.28;;
30681;SDS011;17439;48.092;11.842;2023-01-19T01:26:12;14.77;;;6.50;;
30681;SDS011;17439;48.092;11.842;2023-01-19T01:28:38;13.63;;;6.13;;
30681;SDS011;17439;48.092;11.842;2023-01-19T01:31:05;15.25;;;6.63;;
30681;SDS011;17439;48.092;11.842;2023-01-19T01:33:31;21.60;;;8.20;;
30681;SDS011;17439;48.092;11.842;2023-01-19T01:36:06;15.63;;;6.22;;
30681;SDS011;17439;48.092;11.842;2023-01-19T01:38:35;12.38;;;6.13;;
30681;SDS011;17439;48.092;11.842;2023-01-19T01:41:01;12.63;;;6.13;;
30681;SDS011;17439;48.092;11.842;2023-01-19T01:43:44;12.57;;;5.65;;
30681;SDS011;17439;48.092;11.842;2023-01-19T01:48:51;12.57;;;6.03;;
30681;SDS011;17439;48.092;11.842;2023-01-19T01:51:24;13.43;;;5.95;;
30681;SDS011;17439;48.092;11.842;2023-01-19T01:53:57;13.88;;;5.10;;
30681;SDS011;17439;48.092;11.842;2023-01-19T01:56:33;14.32;;;6.13;;
30681;SDS011;17439;48.092;11.842;2023-01-19T01:59:04;14.77;;;5.70;;
30681;SDS011;17439;48.092;11.842;2023-01-19T02:01:33;11.13;;;5.55;;
30681;SDS011;17439;48.092;11.842;2023-01-19T02:04:01;13.07;;;6.10;;
30681;SDS011;17439;48.092;11.842;2023-01-19T02:06:27;18.42;;;7.03;;
30681;SDS011;17439;48.092;11.842;2023-01-19T02:08:56;11.93;;;6.30;;
30681;SDS011;17439;48.092;11.842;2023-01-19T02:11:27;13.77;;;6.70;;
30681;SDS011;17439;48.092;11.842;2023-01-19T02:13:56;15.80;;;6.78;;
30681;SDS011;17439;48.092;11.842;2023-01-19T02:16:22;14.25;;;6.35;;
30681;SDS011;17439;48.092;11.842;2023-01-19T02:18:49;15.02;;;6.65;;
30681;SDS011;17439;48.092;11.842;2023-01-19T02:26:24;14.63;;;6.28;;
30681;SDS011;17439;48.092;11.842;2023-01-19T02:28:52;17.50;;;6.32;;
30681;SDS011;17439;48.092;11.842;2023-01-19T02:31:23;11.80;;;5.90;;
30681;SDS011;17439;48.092;11.842;2023-01-19T02:33:51;14.57;;;6.38;;
30681;SDS011;17439;48.092;11.842;2023-01-19T02:36:19;8.52;;;4.93;;
30681;SDS011;17439;48.092;11.842;2023-01-19T02:38:50;14.40;;;6.28;;
30681;SDS011;17439;48.092;11.842;2023-01-19T02:41:21;15.20;;;5.43;;
30681;SDS011;17439;48.092;11.842;2023-01-19T02:43:51;13.65;;;5.65;;
30681;SDS011;17439;48.092;11.842;2023-01-19T02:46:19;13.75;;;6.75;;
30681;SDS011;17439;48.092;11.842;2023-01-19T02:48:45;16.25;;;5.95;;
30681;SDS011;17439;48.092;11.842;2023-01-19T03:02:15;9.57;;;5.28;;
30681;SDS011;17439;48.092;11.842;2023-01-19T03:16:36;10.57;;;4.75;;
30681;SDS011;17439;48.092;11.842;2023-01-19T03:19:08;10.73;;;4.50;;
30681;SDS011;17439;48.092;11.842;2023-01-19T03:21:44;12.98;;;6.43;;
30681;SDS011;17439;48.092;11.842;2023-01-19T03:24:14;12.68;;;6.13;;
30681;SDS011;17439;48.092;11.842;2023-01-19T03:26:43;11.25;;;5.55;;
30681;SDS011;17439;48.092;11.842;2023-01-19T03:29:14;11.57;;;5.82;;
30681;SDS011;17439;48.092;11.842;2023-01-19T03:31:44;14.15;;;5.50;;
30681;SDS011;17439;48.092;11.842;2023-01-19T03:34:14;12.35;;;6.03;;
30681;SDS011;17439;48.092;11.842;2023-01-19T03:36:43;9.68;;;5.63;;
30681;SDS011;17439;48.092;11.842;2023-01-19T03:39:15;12.98;;;6.28;;
30681;SDS011;17439;48.092;11.842;2023-01-19T03:41:47;10.05;;;5.10;;
30681;SDS011;17439;48.092;11.842;2023-01-19T03:44:15;12.57;;;4.70;;
30681;SDS011;17439;48.092;11.842;2023-01-19T03:46:42;7.90;;;3.92;;
30681;SDS011;17439;48.092;11.842;2023-01-19T03:49:11;8.18;;;4.43;;
30681;SDS011;17439;48.092;11.842;2023-01-19T03:51:37;9.45;;;4.47;;
30681;SDS011;17439;48.092;11.842;2023-01-19T03:54:05;7.25;;;3.83;;
30681;SDS011;17439;48.092;11.842;2023-01-19T03:56:32;7.55;;;4.20;;
30681;SDS011;17439;48.092;11.842;2023-01-19T03:58:59;8.20;;;3.38;;
30681;SDS011;17439;48.092;11.842;2023-01-19T04:01:25;9.70;;;3.35;;
30681;SDS011;17439;48.092;11.842;2023-01-19T04:03:52;8.23;;;3.92;;
30681;SDS011;17439;48.092;11.842;2023-01-19T04:06:19;8.23;;;3.70;;
30681;SDS011;17439;48.092;11.842;2023-01-19T04:08:47;8.43;;;4.30;;
30681;SDS011;17439;48.092;11.842;2023-01-19T04:11:15;13.50;;;3.15;;
30681;SDS011;17439;48.092;11.842;2023-01-19T04:13:42;4.68;;;2.70;;
30681;SDS011;17439;48.092;11.842;2023-01-19T04:16:09;7.13;;;2.95;;
30681;SDS011;17439;48.092;11.842;2023-01-19T04:18:36;6.45;;;3.15;;
30681;SDS011;17439;48.092;11.842;2023-01-19T04:21:04;7.47;;;2.90;;
30681;SDS011;17439;48.092;11.842;2023-01-19T04:23:32;6.18;;;2.35;;
30681;SDS011;17439;48.092;11.842;2023-01-19T04:26:03;5.97;;;3.58;;
30681;SDS011;17439;48.092;11.842;2023-01-19T04:28:32;5.60;;;2.95;;
30681;SDS011;17439;48.092;11.842;2023-01-19T04:30:59;9.63;;;3.15;;
30681;SDS011;17439;48.092;11.842;2023-01-19T04:33:26;5.63;;;2.95;;
30681;SDS011;17439;48.092;11.842;2023-01-19T04:35:53;7.03;;;3.07;;
30681;SDS011;17439;48.092;11.842;2023-01-19T04:38:21;6.53;;;2.90;;
30681;SDS011;17439;48.092;11.842;2023-01-19T04:43:15;8.73;;;3.63;;
30681;SDS011;17439;48.092;11.842;2023-01-19T04:45:42;11.00;;;4.35;;
30681;SDS011;17439;48.092;11.842;2023-01-19T04:48:09;7.05;;;3.28;;
30681;SDS011;17439;48.092;11.842;2023-01-19T04:50:36;7.38;;;3.42;;
30681;SDS011;17439;48.092;11.842;2023-01-19T04:53:03;14.15;;;4.05;;
30681;SDS011;17439;48.092;11.842;2023-01-19T04:55:29;5.60;;;3.45;;
30681;SDS011;17439;48.092;11.842;2023-01-19T04:57:56;7.13;;;3.92;;
30681;SDS011;17439;48.092;11.842;2023-01-19T05:00:23;7.63;;;4.40;;
30681;SDS011;17439;48.092;11.842;2023-01-19T05:02:49;8.00;;;3.97;;
30681;SDS011;17439;48.092;11.842;2023-01-19T05:05:16;11.35;;;4.60;;
30681;SDS011;17439;48.092;11.842;2023-01-19T05:07:43;7.57;;;3.90;;
30681;SDS011;17439;48.092;11.842;2023-01-19T05:10:10;9.88;;;5.38;;
30681;SDS011;17439;48.092;11.842;2023-01-19T05:12:37;9.77;;;4.85;;
30681;SDS011;17439;48.092;11.842;2023-01-19T05:15:04;9.35;;;4.20;;
30681;SDS011;17439;48.092;11.842;2023-01-19T05:17:31;11.38;;;5.70;;
30681;SDS011;17439;48.092;11.842;2023-01-19T05:19:58;11.07;;;5.22;;
30681;SDS011;17439;48.092;11.842;2023-01-19T05:22:24;8.50;;;4.53;;
30681;SDS011;17439;48.092;11.842;2023-01-19T05:24:51;9.90;;;5.05;;
30681;SDS011;17439;48.092;11.842;2023-01-19T05:27:17;8.30;;;5.35;;
30681;SDS011;17439;48.092;11.842;2023-01-19T05:29:44;10.25;;;5.07;;
30681;SDS011;17439;48.092;11.842;2023-01-19T05:32:11;10.82;;;4.63;;
30681;SDS011;17439;48.092;11.842;2023-01-19T05:34:37;9.95;;;5.53;;
30681;SDS011;17439;48.092;11.842;2023-01-19T05:37:04;7.70;;;4.75;;
30681;SDS011;17439;48.092;11.842;2023-01-19T05:39:30;11.02;;;5.50;;
30681;SDS011;17439;48.092;11.842;2023-01-19T05:41:57;11.20;;;5.22;;
30681;SDS011;17439;48.092;11.842;2023-01-19T05:44:23;11.55;;;5.18;;
30681;SDS011;17439;48.092;11.842;2023-01-19T05:46:50;8.38;;;4.25;;
30681;SDS011;17439;48.092;11.842;2023-01-19T05:49:17;9.50;;;5.30;;
30681;SDS011;17439;48.092;11.842;2023-01-19T05:51:43;12.30;;;5.30;;
30681;SDS011;17439;48.092;11.842;2023-01-19T05:54:11;8.95;;;4.45;;
30681;SDS011;17439;48.092;11.842;2023-01-19T05:56:40;13.32;;;5.85;;
30681;SDS011;17439;48.092;11.842;2023-01-19T05:59:07;15.70;;;5.50;;
30681;SDS011;17439;48.092;11.842;2023-01-19T06:01:34;11.63;;;5.18;;
30681;SDS011;17439;48.092;11.842;2023-01-19T06:04:04;8.77;;;5.03;;
30681;SDS011;17439;48.092;11.842;2023-01-19T06:06:30;10.05;;;4.97;;
30681;SDS011;17439;48.092;11.842;2023-01-19T06:08:57;10.95;;;5.35;;
30681;SDS011;17439;48.092;11.842;2023-01-19T06:11:24;17.92;;;6.57;;
30681;SDS011;17439;48.092;11.842;2023-01-19T06:13:50;11.70;;;5.82;;
30681;SDS011;17439;48.092;11.842;2023-01-19T06:16:17;9.63;;;5.13;;
30681;SDS011;17439;48.092;11.842;2023-01-19T06:18:44;9.32;;;5.10;;
30681;SDS011;17439;48.092;11.842;2023-01-19T06:21:10;8.93;;;4.63;;
30681;SDS011;17439;48.092;11.842;2023-01-19T06:23:37;9.45;;;4.82;;
30681;SDS011;17439;48.092;11.842;2023-01-19T06:26:03;9.98;;;4.85;;
30681;SDS011;17439;48.092;11.842;2023-01-19T06:28:30;11.70;;;4.70;;
30681;SDS011;17439;48.092;11.842;2023-01-19T06:30:57;10.88;;;5.15;;
30681;SDS011;17439;48.092;11.842;2023-01-19T06:33:23;12.00;;;4.85;;
30681;SDS011;17439;48.092;11.842;2023-01-19T06:35:50;7.77;;;4.57;;
30681;SDS011;17439;48.092;11.842;2023-01-19T06:38:17;9.30;;;4.85;;
30681;SDS011;17439;48.092;11.842;2023-01-19T06:40:44;12.85;;;5.40;;
30681;SDS011;17439;48.092;11.842;2023-01-19T06:43:16;13.60;;;5.88;;
30681;SDS011;17439;48.092;11.842;2023-01-19T06:45:44;13.73;;;6.18;;
30681;SDS011;17439;48.092;11.842;2023-01-19T06:48:11;11.30;;;6.30;;
30681;SDS011;17439;48.092;11.842;2023-01-19T06:50:38;12.25;;;5.82;;
30681;SDS011;17439;48.092;11.842;2023-01-19T06:53:04;10.05;;;5.13;;
30681;SDS011;17439;48.092;11.842;2023-01-19T06:55:31;11.90;;;6.75;;
30681;SDS011;17439;48.092;11.842;2023-01-19T06:57:58;11.98;;;6.30;;
30681;SDS011;17439;48.092;11.842;2023-01-19T07:00:26;9.55;;;5.63;;
30681;SDS011;17439;48.092;11.842;2023-01-19T07:02:53;12.05;;;6.53;;
30681;SDS011;17439;48.092;11.842;2023-01-19T07:05:19;17.75;;;7.68;;
30681;SDS011;17439;48.092;11.842;2023-01-19T07:07:52;11.98;;;6.22;;
30681;SDS011;17439;48.092;11.842;2023-01-19T07:10:20;15.57;;;7.22;;
30681;SDS011;17439;48.092;11.842;2023-01-19T07:12:48;15.25;;;5.70;;
30681;SDS011;17439;48.092;11.842;2023-01-19T07:15:16;15.80;;;7.75;;
30681;SDS011;17439;48.092;11.842;2023-01-19T07:17:44;14.80;;;5.82;;
30681;SDS011;17439;48.092;11.842;2023-01-19T07:20:11;13.90;;;6.82;;
30681;SDS011;17439;48.092;11.842;2023-01-19T07:22:39;13.82;;;6.80;;
30681;SDS011;17439;48.092;11.842;2023-01-19T07:25:07;13.68;;;6.05;;
30681;SDS011;17439;48.092;11.842;2023-01-19T07:27:33;13.80;;;5.82;;
30681;SDS011;17439;48.092;11.842;2023-01-19T07:30:00;12.75;;;5.72;;
30681;SDS011;17439;48.092;11.842;2023-01-19T07:32:27;12.90;;;6.70;;
30681;SDS011;17439;48.092;11.842;2023-01-19T07:34:54;12.65;;;6.70;;
30681;SDS011;17439;48.092;11.842;2023-01-19T07:37:21;11.43;;;6.32;;
30681;SDS011;17439;48.092;11.842;2023-01-19T07:39:47;10.10;;;5.43;;
30681;SDS011;17439;48.092;11.842;2023-01-19T07:42:14;11.32;;;6.40;;
30681;SDS011;17439;48.092;11.842;2023-01-19T07:44:41;12.18;;;6.07;;
30681;SDS011;17439;48.092;11.842;2023-01-19T07:47:07;17.10;;;7.38;;
30681;SDS011;17439;48.092;11.842;2023-01-19T07:49:34;13.95;;;7.43;;
30681;SDS011;17439;48.092;11.842;2023-01-19T07:52:00;17.17;;;7.57;;
30681;SDS011;17439;48.092;11.842;2023-01-19T07:54:27;12.13;;;6.75;;
30681;SDS011;17439;48.092;11.842;2023-01-19T07:56:53;17.40;;;7.15;;
30681;SDS011;17439;48.092;11.842;2023-01-19T07:59:20;15.55;;;7.05;;
30681;SDS011;17439;48.092;11.842;2023-01-19T08:01:47;10.23;;;5.72;;
30681;SDS011;17439;48.092;11.842;2023-01-19T08:04:13;14.77;;;7.65;;
30681;SDS011;17439;48.092;11.842;2023-01-19T08:06:41;12.50;;;6.10;;
30681;SDS011;17439;48.092;11.842;2023-01-19T08:09:10;12.95;;;5.78;;
30681;SDS011;17439;48.092;11.842;2023-01-19T08:11:37;15.18;;;6.68;;
30681;SDS011;17439;48.092;11.842;2023-01-19T08:14:03;11.88;;;5.80;;
30681;SDS011;17439;48.092;11.842;2023-01-19T08:16:33;13.77;;;6.70;;
30681;SDS011;17439;48.092;11.842;2023-01-19T08:19:00;10.73;;;5.85;;
30681;SDS011;17439;48.092;11.842;2023-01-19T08:21:27;10.18;;;5.07;;
30681;SDS011;17439;48.092;11.842;2023-01-19T08:23:54;13.68;;;5.68;;
30681;SDS011;17439;48.092;11.842;2023-01-19T08:26:25;14.88;;;6.88;;
30681;SDS011;17439;48.092;11.842;2023-01-19T08:28:53;12.75;;;5.68;;
30681;SDS011;17439;48.092;11.842;2023-01-19T08:31:20;17.83;;;5.83;;
30681;SDS011;17439;48.092;11.842;2023-01-19T08:33:50;14.88;;;6.15;;
30681;SDS011;17439;48.092;11.842;2023-01-19T08:36:17;13.50;;;6.35;;
30681;SDS011;17439;48.092;11.842;2023-01-19T08:38:44;15.43;;;7.18;;
30681;SDS011;17439;48.092;11.842;2023-01-19T08:41:11;11.82;;;6.00;;
30681;SDS011;17439;48.092;11.842;2023-01-19T08:43:38;12.02;;;6.20;;
30681;SDS011;17439;48.092;11.842;2023-01-19T08:46:05;11.40;;;6.03;;
30681;SDS011;17439;48.092;11.842;2023-01-19T08:48:31;11.27;;;5.72;;
30681;SDS011;17439;48.092;11.842;2023-01-19T08:50:58;17.00;;;7.75;;
30681;SDS011;17439;48.092;11.842;2023-01-19T08:53:25;18.23;;;8.18;;
30681;SDS011;17439;48.092;11.842;2023-01-19T08:55:55;12.10;;;6.25;;
30681;SDS011;17439;48.092;11.842;2023-01-19T08:58:22;14.48;;;7.57;;
30681;SDS011;17439;48.092;11.842;2023-01-19T09:00:49;10.95;;;5.85;;
30681;SDS011;17439;48.092;11.842;2023-01-19T09:03:16;11.95;;;5.80;;
30681;SDS011;17439;48.092;11.842;2023-01-19T09:05:42;11.80;;;6.45;;
30681;SDS011;17439;48.092;11.842;2023-01-19T09:08:10;11.57;;;5.95;;
30681;SDS011;17439;48.092;11.842;2023-01-19T09:10:42;14.00;;;6.07;;
30681;SDS011;17439;48.092;11.842;2023-01-19T09:13:11;18.52;;;7.13;;
30681;SDS011;17439;48.092;11.842;2023-01-19T09:15:38;14.55;;;5.50;;
30681;SDS011;17439;48.092;11.842;2023-01-19T09:18:06;11.57;;;6.00;;
30681;SDS011;17439;48.092;11.842;2023-01-19T09:20:34;12.80;;;6.07;;
30681;SDS011;17439;48.092;11.842;2023-01-19T09:23:01;11.95;;;5.97;;
30681;SDS011;17439;48.092;11.842;2023-01-19T09:25:31;11.02;;;6.03;;
30681;SDS011;17439;48.092;11.842;2023-01-19T09:27:58;11.32;;;5.95;;
30681;SDS011;17439;48.092;11.842;2023-01-19T09:30:26;13.07;;;6.45;;
30681;SDS011;17439;48.092;11.842;2023-01-19T09:32:52;11.73;;;5.68;;
30681;SDS011;17439;48.092;11.842;2023-01-19T09:35:19;11.48;;;5.65;;
30681;SDS011;17439;48.092;11.842;2023-01-19T09:37:48;12.98;;;6.22;;
30681;SDS011;17439;48.092;11.842;2023-01-19T09:40:15;11.38;;;5.68;;
30681;SDS011;17439;48.092;11.842;2023-01-19T09:42:46;8.98;;;4.80;;
30681;SDS011;17439;48.092;11.842;2023-01-19T09:45:28;12.20;;;5.47;;
30681;SDS011;17439;48.092;11.842;2023-01-19T09:48:01;11.63;;;5.78;;
30681;SDS011;17439;48.092;11.842;2023-01-19T09:50:45;11.38;;;5.63;;
30681;SDS011;17439;48.092;11.842;2023-01-19T09:53:16;14.73;;;6.68;;
30681;SDS011;17439;48.092;11.842;2023-01-19T09:58:31;10.20;;;6.00;;
30681;SDS011;17439;48.092;11.842;2023-01-19T10:01:00;12.77;;;6.55;;
30681;SDS011;17439;48.092;11.842;2023-01-19T10:03:43;11.25;;;5.05;;
30681;SDS011;17439;48.092;11.842;2023-01-19T10:06:10;9.80;;;5.30;;
30681;SDS011;17439;48.092;11.842;2023-01-19T10:08:54;7.65;;;4.95;;
30681;SDS011;17439;48.092;11.842;2023-01-19T10:11:36;10.15;;;4.95;;
30681;SDS011;17439;48.092;11.842;2023-01-19T10:14:19;12.80;;;6.15;;
30681;SDS011;17439;48.092;11.842;2023-01-19T10:17:08;15.05;;;7.07;;
30681;SDS011;17439;48.092;11.842;2023-01-19T10:19:45;14.35;;;7.38;;
30681;SDS011;17439;48.092;11.842;2023-01-19T10:22:33;15.68;;;6.75;;
30681;SDS011;17439;48.092;11.842;2023-01-19T10:25:02;12.60;;;7.00;;
30681;SDS011;17439;48.092;11.842;2023-01-19T10:27:37;12.55;;;6.22;;
30681;SDS011;17439;48.092;11.842;2023-01-19T10:30:05;15.25;;;6.78;;
30681;SDS011;17439;48.092;11.842;2023-01-19T10:32:33;14.25;;;6.63;;
30681;SDS011;17439;48.092;11.842;2023-01-19T10:35:03;10.68;;;5.15;;
30681;SDS011;17439;48.092;11.842;2023-01-19T10:37:40;12.15;;;5.50;;
30681;SDS011;17439;48.092;11.842;2023-01-19T10:42:37;15.60;;;6.13;;
30681;SDS011;17439;48.092;11.842;2023-01-19T10:45:15;10.25;;;5.15;;
30681;SDS011;17439;48.092;11.842;2023-01-19T10:47:46;10.07;;;5.38;;
30681;SDS011;17439;48.092;11.842;2023-01-19T10:52:57;10.63;;;5.15;;
30681;SDS011;17439;48.092;11.842;2023-01-19T10:55:30;15.90;;;5.50;;
30681;SDS011;17439;48.092;11.842;2023-01-19T10:57:59;17.05;;;6.05;;
30681;SDS011;17439;48.092;11.842;2023-01-19T11:05:46;14.80;;;6.00;;
30681;SDS011;17439;48.092;11.842;2023-01-19T11:08:22;13.80;;;6.68;;
30681;SDS011;17439;48.092;11.842;2023-01-19T11:10:57;11.55;;;6.57;;
30681;SDS011;17439;48.092;11.842;2023-01-19T11:13:27;12.68;;;6.18;;
30681;SDS011;17439;48.092;11.842;2023-01-19T11:15:54;10.00;;;5.13;;
30681;SDS011;17439;48.092;11.842;2023-01-19T11:18:30;9.88;;;4.85;;
30681;SDS011;17439;48.092;11.842;2023-01-19T11:21:02;10.60;;;6.30;;
30681;SDS011;17439;48.092;11.842;2023-01-19T11:23:38;12.35;;;6.25;;
30681;SDS011;17439;48.092;11.842;2023-01-19T11:26:14;10.50;;;5.72;;
30681;SDS011;17439;48.092;11.842;2023-01-19T11:28:51;9.20;;;5.28;;
30681;SDS011;17439;48.092;11.842;2023-01-19T11:31:29;12.63;;;5.22;;
30681;SDS011;17439;48.092;11.842;2023-01-19T11:34:02;10.25;;;5.15;;
30681;SDS011;17439;48.092;11.842;2023-01-19T11:36:31;14.65;;;6.00;;
30681;SDS011;17439;48.092;11.842;2023-01-19T11:39:22;9.23;;;5.05;;
30681;SDS011;17439;48.092;11.842;2023-01-19T11:41:50;11.05;;;5.63;;
30681;SDS011;17439;48.092;11.842;2023-01-19T11:46:58;10.93;;;5.20;;
30681;SDS011;17439;48.092;11.842;2023-01-19T11:52:30;8.70;;;4.97;;
30681;SDS011;17439;48.092;11.842;2023-01-19T11:55:11;10.20;;;4.70;;
30681;SDS011;17439;48.092;11.842;2023-01-19T11:57:44;9.98;;;3.97;;
30681;SDS011;17439;48.092;11.842;2023-01-19T12:00:21;9.27;;;4.07;;
30681;SDS011;17439;48.092;11.842;2023-01-19T12:02:52;9.07;;;4.57;;
30681;SDS011;17439;48.092;11.842;2023-01-19T12:05:23;8.65;;;4.60;;
30681;SDS011;17439;48.092;11.842;2023-01-19T12:07:55;10.05;;;4.13;;
30681;SDS011;17439;48.092;11.842;2023-01-19T12:10:27;9.88;;;4.85;;
30681;SDS011;17439;48.092;11.842;2023-01-19T12:12:56;10.20;;;4.68;;
30681;SDS011;17439;48.092;11.842;2023-01-19T12:18:20;9.70;;;4.40;;
30681;SDS011;17439;48.092;11.842;2023-01-19T12:24:00;12.10;;;5.70;;
30681;SDS011;17439;48.092;11.842;2023-01-19T12:27:12;10.05;;;4.60;;
30681;SDS011;17439;48.092;11.842;2023-01-19T12:29:52;12.38;;;4.90;;
30681;SDS011;17439;48.092;11.842;2023-01-19T12:32:31;9.73;;;5.82;;
30681;SDS011;17439;48.092;11.842;2023-01-19T12:34:59;10.50;;;5.18;;
30681;SDS011;17439;48.092;11.842;2023-01-19T12:39:52;11.30;;;4.75;;
30681;SDS011;17439;48.092;11.842;2023-01-19T12:42:21;11.75;;;5.63;;
30681;SDS011;17439;48.092;11.842;2023-01-19T12:44:50;10.48;;;4.43;;
30681;SDS011;17439;48.092;11.842;2023-01-19T12:47:30;14.13;;;6.32;;
30681;SDS011;17439;48.092;11.842;2023-01-19T12:49:58;7.37;;;4.17;;
30681;SDS011;17439;48.092;11.842;2023-01-19T12:52:40;8.77;;;4.65;;
30681;SDS011;17439;48.092;11.842;2023-01-19T13:00:33;8.07;;;4.20;;
30681;SDS011;17439;48.092;11.842;2023-01-19T13:16:22;7.45;;;3.72;;
30681;SDS011;17439;48.092;11.842;2023-01-19T13:18:46;10.07;;;4.40;;
30681;SDS011;17439;48.092;11.842;2023-01-19T13:23:54;8.35;;;3.50;;
30681;SDS011;17439;48.092;11.842;2023-01-19T13:26:29;6.93;;;3.40;;
30681;SDS011;17439;48.092;11.842;2023-01-19T13:29:09;9.77;;;4.28;;
30681;SDS011;17439;48.092;11.842;2023-01-19T13:31:42;7.47;;;3.83;;
30681;SDS011;17439;48.092;11.842;2023-01-19T13:36:43;12.57;;;4.65;;
30681;SDS011;17439;48.092;11.842;2023-01-19T13:39:13;7.65;;;3.60;;
30681;SDS011;17439;48.092;11.842;2023-01-19T13:41:44;4.43;;;2.45;;
30681;SDS011;17439;48.092;11.842;2023-01-19T13:46:46;8.40;;;3.70;;
30681;SDS011;17439;48.092;11.842;2023-01-19T13:52:05;4.95;;;2.95;;
30681;SDS011;17439;48.092;11.842;2023-01-19T13:54:35;4.70;;;2.75;;
30681;SDS011;17439;48.092;11.842;2023-01-19T13:57:01;7.70;;;3.05;;
30681;SDS011;17439;48.092;11.842;2023-01-19T13:59:28;8.23;;;2.88;;
30681;SDS011;17439;48.092;11.842;2023-01-19T14:01:55;8.15;;;3.55;;
30681;SDS011;17439;48.092;11.842;2023-01-19T14:04:38;6.50;;;2.58;;
30681;SDS011;17439;48.092;11.842;2023-01-19T14:07:05;8.13;;;2.70;;
30681;SDS011;17439;48.092;11.842;2023-01-19T14:09:38;8.77;;;2.28;;
30681;SDS011;17439;48.092;11.842;2023-01-19T14:14:40;4.85;;;2.53;;
30681;SDS011;17439;48.092;11.842;2023-01-19T14:17:41;4.20;;;2.35;;
30681;SDS011;17439;48.092;11.842;2023-01-19T14:20:00;5.60;;;2.47;;
30681;SDS011;17439;48.092;11.842;2023-01-19T14:22:37;5.07;;;2.10;;
30681;SDS011;17439;48.092;11.842;2023-01-19T14:27:50;7.45;;;2.45;;
30681;SDS011;17439;48.092;11.842;2023-01-19T14:30:19;7.43;;;2.58;;
30681;SDS011;17439;48.092;11.842;2023-01-19T14:32:47;6.40;;;2.50;;
30681;SDS011;17439;48.092;11.842;2023-01-19T14:35:21;5.93;;;2.15;;
30681;SDS011;17439;48.092;11.842;2023-01-19T14:37:49;4.88;;;2.85;;
30681;SDS011;17439;48.092;11.842;2023-01-19T14:40:18;4.80;;;2.33;;
30681;SDS011;17439;48.092;11.842;2023-01-19T14:48:00;3.47;;;2.20;;
30681;SDS011;17439;48.092;11.842;2023-01-19T14:50:38;4.10;;;2.60;;
30681;SDS011;17439;48.092;11.842;2023-01-19T14:53:17;8.70;;;3.60;;
30681;SDS011;17439;48.092;11.842;2023-01-19T14:55:53;7.13;;;2.72;;
30681;SDS011;17439;48.092;11.842;2023-01-19T14:58:26;5.13;;;2.20;;
30681;SDS011;17439;48.092;11.842;2023-01-19T15:00:58;6.82;;;2.15;;
30681;SDS011;17439;48.092;11.842;2023-01-19T15:03:26;3.78;;;2.00;;
30681;SDS011;17439;48.092;11.842;2023-01-19T15:06:11;6.28;;;2.65;;
30681;SDS011;17439;48.092;11.842;2023-01-19T15:08:40;5.60;;;2.75;;
30681;SDS011;17439;48.092;11.842;2023-01-19T15:11:11;6.72;;;2.85;;
30681;SDS011;17439;48.092;11.842;2023-01-19T15:13:47;6.90;;;3.00;;
30681;SDS011;17439;48.092;11.842;2023-01-19T15:16:14;6.10;;;2.57;;
30681;SDS011;17439;48.092;11.842;2023-01-19T15:18:41;5.03;;;2.58;;
30681;SDS011;17439;48.092;11.842;2023-01-19T15:21:10;5.57;;;2.35;;
30681;SDS011;17439;48.092;11.842;2023-01-19T15:23:39;6.47;;;2.20;;
30681;SDS011;17439;48.092;11.842;2023-01-19T15:26:06;6.70;;;2.45;;
30681;SDS011;17439;48.092;11.842;2023-01-19T15:28:42;5.20;;;2.05;;
30681;SDS011;17439;48.092;11.842;2023-01-19T15:31:15;7.03;;;2.75;;
30681;SDS011;17439;48.092;11.842;2023-01-19T15:33:44;4.43;;;2.40;;
30681;SDS011;17439;48.092;11.842;2023-01-19T15:36:12;3.33;;;2.00;;
30681;SDS011;17439;48.092;11.842;2023-01-19T15:38:43;8.43;;;2.35;;
30681;SDS011;17439;48.092;11.842;2023-01-19T15:41:25;3.85;;;2.00;;
30681;SDS011;17439;48.092;11.842;2023-01-19T15:43:53;4.55;;;2.13;;
30681;SDS011;17439;48.092;11.842;2023-01-19T15:46:21;6.97;;;2.30;;
30681;SDS011;17439;48.092;11.842;2023-01-19T15:48:50;4.80;;;2.05;;
30681;SDS011;17439;48.092;11.842;2023-01-19T15:51:18;5.10;;;2.45;;
30681;SDS011;17439;48.092;11.842;2023-01-19T15:53:47;10.77;;;2.65;;
30681;SDS011;17439;48.092;11.842;2023-01-19T15:56:15;6.27;;;2.33;;
30681;SDS011;17439;48.092;11.842;2023-01-19T15:58:43;10.02;;;3.20;;
30681;SDS011;17439;48.092;11.842;2023-01-19T16:01:16;4.47;;;2.03;;
30681;SDS011;17439;48.092;11.842;2023-01-19T16:03:45;3.88;;;2.35;;
30681;SDS011;17439;48.092;11.842;2023-01-19T16:06:12;3.50;;;2.08;;
30681;SDS011;17439;48.092;11.842;2023-01-19T16:08:39;6.10;;;1.88;;
30681;SDS011;17439;48.092;11.842;2023-01-19T16:11:07;6.15;;;2.47;;
30681;SDS011;17439;48.092;11.842;2023-01-19T16:13:35;6.68;;;2.47;;
30681;SDS011;17439;48.092;11.842;2023-01-19T16:16:03;5.05;;;2.35;;
30681;SDS011;17439;48.092;11.842;2023-01-19T16:18:31;5.10;;;2.33;;